sensor_id;sensor_type;location;lat;lon;timestamp;pressure;altitude;pressure_sealevel;temperature;humidity
39051;BME280;24805;55.852;37.644;2022-10-31T00:02:22;97612.16;;;3.21;48.26
39051;BME280;24805;55.852;37.644;2022-10-31T00:07:24;97602.41;;;3.15;47.23
39051;BME280;24805;55.852;37.644;2022-10-31T00:12:26;97608.44;;;3.16;47.17
39051;BME280;24805;55.852;37.644;2022-10-31T00:17:28;97593.38;;;3.18;47.26
39051;BME280;24805;55.852;37.644;2022-10-31T00:22:30;97596.44;;;3.21;47.76
39051;BME280;24805;55.852;37.644;2022-10-31T00:27:31;97596.63;;;3.20;47.42
39051;BME280;24805;55.852;37.644;2022-10-31T00:32:33;97579.28;;;3.19;47.30
39051;BME280;24805;55.852;37.644;2022-10-31T00:37:36;97578.47;;;3.18;47.87
39051;BME280;24805;55.852;37.644;2022-10-31T00:42:39;97593.00;;;3.21;47.58
39051;BME280;24805;55.852;37.644;2022-10-31T00:47:41;97592.00;;;3.22;48.01
39051;BME280;24805;55.852;37.644;2022-10-31T00:52:43;97581.50;;;3.22;47.30
39051;BME280;24805;55.852;37.644;2022-10-31T00:57:46;97599.16;;;3.28;47.60
39051;BME280;24805;55.852;37.644;2022-10-31T01:02:49;97586.22;;;3.26;47.50
39051;BME280;24805;55.852;37.644;2022-10-31T01:07:51;97577.72;;;3.24;48.05
39051;BME280;24805;55.852;37.644;2022-10-31T01:12:53;97586.16;;;3.20;48.44
39051;BME280;24805;55.852;37.644;2022-10-31T01:17:56;97598.69;;;3.24;48.23
39051;BME280;24805;55.852;37.644;2022-10-31T01:22:59;97590.75;;;3.18;49.51
39051;BME280;24805;55.852;37.644;2022-10-31T01:28:00;97599.53;;;3.02;49.84
39051;BME280;24805;55.852;37.644;2022-10-31T01:33:03;97611.47;;;2.82;50.89
39051;BME280;24805;55.852;37.644;2022-10-31T01:38:05;97606.84;;;2.69;50.98
39051;BME280;24805;55.852;37.644;2022-10-31T01:43:10;97613.91;;;2.60;51.51
39051;BME280;24805;55.852;37.644;2022-10-31T01:48:14;97608.75;;;2.52;51.93
39051;BME280;24805;55.852;37.644;2022-10-31T01:53:17;97615.19;;;2.41;52.86
39051;BME280;24805;55.852;37.644;2022-10-31T01:58:28;97617.53;;;2.36;53.67
39051;BME280;24805;55.852;37.644;2022-10-31T02:03:32;97620.69;;;2.24;53.52
39051;BME280;24805;55.852;37.644;2022-10-31T02:08:34;97617.63;;;2.12;55.43
39051;BME280;24805;55.852;37.644;2022-10-31T02:13:38;97615.22;;;2.02;55.52
39051;BME280;24805;55.852;37.644;2022-10-31T02:19:02;97618.66;;;2.03;55.30
39051;BME280;24805;55.852;37.644;2022-10-31T02:24:28;97619.50;;;1.95;56.85
39051;BME280;24805;55.852;37.644;2022-10-31T02:29:35;97619.19;;;1.90;57.60
39051;BME280;24805;55.852;37.644;2022-10-31T02:50:28;97631.81;;;1.79;58.98
39051;BME280;24805;55.852;37.644;2022-10-31T03:00:36;97611.38;;;1.82;59.09
39051;BME280;24805;55.852;37.644;2022-10-31T03:05:48;97616.75;;;1.81;59.61
39051;BME280;24805;55.852;37.644;2022-10-31T03:10:58;97617.94;;;1.78;60.06
39051;BME280;24805;55.852;37.644;2022-10-31T03:16:07;97616.31;;;1.77;59.52
39051;BME280;24805;55.852;37.644;2022-10-31T03:21:29;97615.78;;;1.82;59.74
39051;BME280;24805;55.852;37.644;2022-10-31T03:26:34;97627.53;;;1.86;60.02
39051;BME280;24805;55.852;37.644;2022-10-31T03:31:49;97611.50;;;1.89;59.98
39051;BME280;24805;55.852;37.644;2022-10-31T03:36:52;97615.44;;;1.93;59.59
39051;BME280;24805;55.852;37.644;2022-10-31T03:41:58;97618.53;;;1.96;59.63
39051;BME280;24805;55.852;37.644;2022-10-31T03:47:03;97622.41;;;2.00;59.13
39051;BME280;24805;55.852;37.644;2022-10-31T03:52:49;97627.63;;;2.00;59.73
39051;BME280;24805;55.852;37.644;2022-10-31T04:02:40;97638.09;;;2.00;60.31
39051;BME280;24805;55.852;37.644;2022-10-31T04:07:45;97640.72;;;2.00;60.11
39051;BME280;24805;55.852;37.644;2022-10-31T04:12:52;97642.50;;;2.00;60.75
39051;BME280;24805;55.852;37.644;2022-10-31T04:17:59;97640.72;;;2.00;59.73
39051;BME280;24805;55.852;37.644;2022-10-31T04:23:03;97653.47;;;2.03;60.30
39051;BME280;24805;55.852;37.644;2022-10-31T04:28:05;97662.13;;;2.04;59.44
39051;BME280;24805;55.852;37.644;2022-10-31T04:33:08;97672.25;;;2.07;60.06
39051;BME280;24805;55.852;37.644;2022-10-31T04:38:10;97672.25;;;2.07;60.21
39051;BME280;24805;55.852;37.644;2022-10-31T04:43:13;97677.47;;;2.07;60.55
39051;BME280;24805;55.852;37.644;2022-10-31T04:48:17;97673.56;;;2.11;60.24
39051;BME280;24805;55.852;37.644;2022-10-31T04:53:19;97676.16;;;2.11;60.44
39051;BME280;24805;55.852;37.644;2022-10-31T04:58:43;97695.63;;;2.17;60.25
39051;BME280;24805;55.852;37.644;2022-10-31T05:03:45;97689.84;;;2.21;60.08
39051;BME280;24805;55.852;37.644;2022-10-31T05:08:46;97700.47;;;2.28;60.32
39051;BME280;24805;55.852;37.644;2022-10-31T05:13:49;97708.63;;;2.33;60.49
39051;BME280;24805;55.852;37.644;2022-10-31T05:19:11;97709.56;;;2.40;60.11
39051;BME280;24805;55.852;37.644;2022-10-31T05:24:31;97735.06;;;2.46;60.03
39051;BME280;24805;55.852;37.644;2022-10-31T05:29:33;97727.19;;;2.54;60.16
39051;BME280;24805;55.852;37.644;2022-10-31T05:34:37;97765.97;;;2.59;60.44
39051;BME280;24805;55.852;37.644;2022-10-31T05:39:54;97760.34;;;2.62;60.45
39051;BME280;24805;55.852;37.644;2022-10-31T05:44:56;97764.44;;;2.64;60.54
39051;BME280;24805;55.852;37.644;2022-10-31T05:50:21;97782.44;;;2.67;60.54
39051;BME280;24805;55.852;37.644;2022-10-31T05:55:32;97792.41;;;2.72;60.86
39051;BME280;24805;55.852;37.644;2022-10-31T06:00:46;97803.84;;;2.79;60.41
39051;BME280;24805;55.852;37.644;2022-10-31T06:05:49;97835.72;;;2.91;60.16
39051;BME280;24805;55.852;37.644;2022-10-31T06:10:58;97843.19;;;3.02;60.46
39051;BME280;24805;55.852;37.644;2022-10-31T06:16:29;97847.75;;;3.08;60.54
39051;BME280;24805;55.852;37.644;2022-10-31T06:21:36;97863.78;;;3.13;60.97
39051;BME280;24805;55.852;37.644;2022-10-31T06:26:38;97875.03;;;3.22;60.38
39051;BME280;24805;55.852;37.644;2022-10-31T06:31:40;97889.56;;;3.32;60.91
39051;BME280;24805;55.852;37.644;2022-10-31T06:36:42;97892.59;;;3.44;60.33
39051;BME280;24805;55.852;37.644;2022-10-31T06:41:46;97907.16;;;3.55;60.84
39051;BME280;24805;55.852;37.644;2022-10-31T06:46:49;97924.13;;;3.67;60.22
39051;BME280;24805;55.852;37.644;2022-10-31T06:52:14;97934.56;;;3.75;60.83
39051;BME280;24805;55.852;37.644;2022-10-31T06:57:16;97946.63;;;3.84;60.56
39051;BME280;24805;55.852;37.644;2022-10-31T07:02:18;97939.53;;;3.93;60.24
39051;BME280;24805;55.852;37.644;2022-10-31T07:07:22;97974.25;;;4.03;60.58
39051;BME280;24805;55.852;37.644;2022-10-31T07:12:25;97988.31;;;4.10;60.54
39051;BME280;24805;55.852;37.644;2022-10-31T07:17:32;98003.38;;;4.16;60.37
39051;BME280;24805;55.852;37.644;2022-10-31T07:22:35;98005.19;;;4.15;60.07
39051;BME280;24805;55.852;37.644;2022-10-31T07:27:41;98024.38;;;4.16;60.18
39051;BME280;24805;55.852;37.644;2022-10-31T07:32:46;98028.72;;;4.24;59.87
39051;BME280;24805;55.852;37.644;2022-10-31T07:37:50;98059.69;;;4.36;60.31
39051;BME280;24805;55.852;37.644;2022-10-31T07:42:53;98076.63;;;4.57;60.22
39051;BME280;24805;55.852;37.644;2022-10-31T07:48:17;98088.69;;;4.89;59.97
39051;BME280;24805;55.852;37.644;2022-10-31T07:53:37;98097.06;;;4.92;59.63
39051;BME280;24805;55.852;37.644;2022-10-31T07:58:48;98093.59;;;4.92;60.03
39051;BME280;24805;55.852;37.644;2022-10-31T08:03:50;98108.44;;;4.84;59.65
39051;BME280;24805;55.852;37.644;2022-10-31T08:09:10;98119.25;;;4.90;59.78
39051;BME280;24805;55.852;37.644;2022-10-31T08:14:13;98135.06;;;5.04;59.67
39051;BME280;24805;55.852;37.644;2022-10-31T08:19:15;98139.78;;;5.32;59.25
39051;BME280;24805;55.852;37.644;2022-10-31T08:24:17;98144.75;;;6.23;60.29
39051;BME280;24805;55.852;37.644;2022-10-31T08:29:20;98135.28;;;6.58;57.07
39051;BME280;24805;55.852;37.644;2022-10-31T08:34:21;98157.19;;;6.59;57.69
39051;BME280;24805;55.852;37.644;2022-10-31T08:39:23;98160.81;;;6.43;56.42
39051;BME280;24805;55.852;37.644;2022-10-31T08:44:28;98185.53;;;6.27;55.85
39051;BME280;24805;55.852;37.644;2022-10-31T08:49:30;98192.09;;;6.16;56.02
39051;BME280;24805;55.852;37.644;2022-10-31T08:54:32;98198.72;;;6.12;57.22
39051;BME280;24805;55.852;37.644;2022-10-31T08:59:53;98205.16;;;6.10;56.66
39051;BME280;24805;55.852;37.644;2022-10-31T09:05:00;98204.41;;;6.01;56.70
39051;BME280;24805;55.852;37.644;2022-10-31T09:10:04;98220.94;;;5.95;55.13
39051;BME280;24805;55.852;37.644;2022-10-31T09:15:09;98221.66;;;5.89;56.11
39051;BME280;24805;55.852;37.644;2022-10-31T09:20:30;98208.53;;;5.81;55.62
39051;BME280;24805;55.852;37.644;2022-10-31T09:25:34;98246.47;;;6.09;56.47
39051;BME280;24805;55.852;37.644;2022-10-31T09:31:00;98245.47;;;6.40;54.85
39051;BME280;24805;55.852;37.644;2022-10-31T09:36:24;98258.09;;;6.44;54.09
39051;BME280;24805;55.852;37.644;2022-10-31T09:41:38;98259.28;;;6.71;56.16
39051;BME280;24805;55.852;37.644;2022-10-31T09:52:03;98279.22;;;7.67;53.69
39051;BME280;24805;55.852;37.644;2022-10-31T09:57:08;98289.94;;;7.66;53.51
39051;BME280;24805;55.852;37.644;2022-10-31T10:02:19;98322.78;;;7.56;53.94
39051;BME280;24805;55.852;37.644;2022-10-31T10:07:25;98348.75;;;7.38;53.52
39051;BME280;24805;55.852;37.644;2022-10-31T10:13:14;98342.78;;;7.15;52.24
39051;BME280;24805;55.852;37.644;2022-10-31T10:28:29;98361.63;;;6.82;53.09
39051;BME280;24805;55.852;37.644;2022-10-31T10:33:36;98351.25;;;6.51;53.50
39051;BME280;24805;55.852;37.644;2022-10-31T10:43:51;98367.16;;;6.73;53.98
39051;BME280;24805;55.852;37.644;2022-10-31T10:59:16;98343.59;;;7.01;52.77
39051;BME280;24805;55.852;37.644;2022-10-31T11:09:21;98352.34;;;6.57;51.85
39051;BME280;24805;55.852;37.644;2022-10-31T11:14:24;98384.31;;;6.39;52.28
39051;BME280;24805;55.852;37.644;2022-10-31T11:19:26;98383.44;;;6.24;53.08
39051;BME280;24805;55.852;37.644;2022-10-31T11:24:39;98383.22;;;6.11;53.26
39051;BME280;24805;55.852;37.644;2022-10-31T11:29:41;98365.44;;;5.90;53.57
39051;BME280;24805;55.852;37.644;2022-10-31T11:34:43;98374.06;;;5.76;53.34
39051;BME280;24805;55.852;37.644;2022-10-31T11:39:54;98368.03;;;5.67;53.60
39051;BME280;24805;55.852;37.644;2022-10-31T11:44:57;98360.94;;;5.45;53.99
39051;BME280;24805;55.852;37.644;2022-10-31T11:50:00;98389.25;;;5.35;54.38
39051;BME280;24805;55.852;37.644;2022-10-31T12:00:32;98388.34;;;5.19;55.27
39051;BME280;24805;55.852;37.644;2022-10-31T12:05:34;98409.06;;;5.14;55.31
39051;BME280;24805;55.852;37.644;2022-10-31T12:10:59;98403.47;;;5.17;55.24
39051;BME280;24805;55.852;37.644;2022-10-31T12:26:52;98395.94;;;5.06;56.67
39051;BME280;24805;55.852;37.644;2022-10-31T12:32:05;98396.13;;;5.05;56.25
39051;BME280;24805;55.852;37.644;2022-10-31T12:42:21;98417.63;;;5.08;56.80
39051;BME280;24805;55.852;37.644;2022-10-31T12:52:43;98419.94;;;5.03;57.40
39051;BME280;24805;55.852;37.644;2022-10-31T12:57:51;98437.84;;;5.00;56.83
39051;BME280;24805;55.852;37.644;2022-10-31T13:13:06;98443.16;;;4.92;57.78
39051;BME280;24805;55.852;37.644;2022-10-31T13:18:11;98463.50;;;4.98;57.10
39051;BME280;24805;55.852;37.644;2022-10-31T13:23:26;98476.13;;;5.02;57.70
39051;BME280;24805;55.852;37.644;2022-10-31T13:28:57;98457.56;;;5.04;57.58
39051;BME280;24805;55.852;37.644;2022-10-31T13:34:03;98480.88;;;5.07;57.55
39051;BME280;24805;55.852;37.644;2022-10-31T13:44:27;98479.06;;;5.15;56.94
39051;BME280;24805;55.852;37.644;2022-10-31T13:59:45;98510.78;;;5.06;57.51
39051;BME280;24805;55.852;37.644;2022-10-31T14:04:49;98491.72;;;5.04;57.52
39051;BME280;24805;55.852;37.644;2022-10-31T14:10:05;98510.66;;;4.99;57.57
39051;BME280;24805;55.852;37.644;2022-10-31T14:15:20;98524.13;;;4.96;57.61
39051;BME280;24805;55.852;37.644;2022-10-31T14:25:32;98525.13;;;4.95;57.75
39051;BME280;24805;55.852;37.644;2022-10-31T14:30:35;98547.13;;;4.94;57.86
39051;BME280;24805;55.852;37.644;2022-10-31T14:40:56;98554.84;;;4.96;57.73
39051;BME280;24805;55.852;37.644;2022-10-31T14:46:06;98559.44;;;4.94;57.71
39051;BME280;24805;55.852;37.644;2022-10-31T14:51:16;98569.31;;;4.92;57.81
39051;BME280;24805;55.852;37.644;2022-10-31T14:56:24;98564.88;;;4.92;58.06
39051;BME280;24805;55.852;37.644;2022-10-31T15:01:27;98597.56;;;4.90;58.18
39051;BME280;24805;55.852;37.644;2022-10-31T15:06:31;98582.28;;;4.85;58.00
39051;BME280;24805;55.852;37.644;2022-10-31T15:11:39;98616.28;;;4.87;58.42
39051;BME280;24805;55.852;37.644;2022-10-31T15:16:41;98601.50;;;4.85;58.13
39051;BME280;24805;55.852;37.644;2022-10-31T15:21:44;98611.19;;;4.85;58.19
39051;BME280;24805;55.852;37.644;2022-10-31T15:26:48;98584.41;;;4.81;58.46
39051;BME280;24805;55.852;37.644;2022-10-31T15:36:59;98634.34;;;4.73;58.86
39051;BME280;24805;55.852;37.644;2022-10-31T15:42:01;98642.03;;;4.67;58.99
39051;BME280;24805;55.852;37.644;2022-10-31T15:47:04;98643.66;;;4.60;58.86
39051;BME280;24805;55.852;37.644;2022-10-31T15:57:12;98674.19;;;4.53;59.31
39051;BME280;24805;55.852;37.644;2022-10-31T16:02:15;98674.03;;;4.54;58.66
39051;BME280;24805;55.852;37.644;2022-10-31T16:07:19;98686.19;;;4.55;59.15
39051;BME280;24805;55.852;37.644;2022-10-31T16:12:31;98693.09;;;4.56;58.88
39051;BME280;24805;55.852;37.644;2022-10-31T16:17:35;98713.13;;;4.57;59.20
39051;BME280;24805;55.852;37.644;2022-10-31T16:22:46;98709.31;;;4.52;58.96
39051;BME280;24805;55.852;37.644;2022-10-31T16:27:50;98713.22;;;4.47;59.07
39051;BME280;24805;55.852;37.644;2022-10-31T16:32:59;98731.63;;;4.47;59.04
39051;BME280;24805;55.852;37.644;2022-10-31T16:38:03;98739.19;;;4.50;58.97
39051;BME280;24805;55.852;37.644;2022-10-31T16:43:08;98736.09;;;4.55;58.38
39051;BME280;24805;55.852;37.644;2022-10-31T16:48:12;98741.34;;;4.55;58.88
39051;BME280;24805;55.852;37.644;2022-10-31T16:53:16;98720.94;;;4.49;58.58
39051;BME280;24805;55.852;37.644;2022-10-31T16:58:21;98748.88;;;4.50;58.71
39051;BME280;24805;55.852;37.644;2022-10-31T17:03:24;98726.06;;;4.50;58.40
39051;BME280;24805;55.852;37.644;2022-10-31T17:08:27;98749.69;;;4.50;58.67
39051;BME280;24805;55.852;37.644;2022-10-31T17:13:29;98741.66;;;4.52;58.76
39051;BME280;24805;55.852;37.644;2022-10-31T17:18:32;98757.94;;;4.56;58.35
39051;BME280;24805;55.852;37.644;2022-10-31T17:23:34;98776.16;;;4.57;58.32
39051;BME280;24805;55.852;37.644;2022-10-31T17:28:37;98763.34;;;4.54;58.21
39051;BME280;24805;55.852;37.644;2022-10-31T17:33:39;98770.56;;;4.52;58.12
39051;BME280;24805;55.852;37.644;2022-10-31T17:38:41;98783.00;;;4.50;58.37
39051;BME280;24805;55.852;37.644;2022-10-31T17:43:43;98786.31;;;4.52;58.22
39051;BME280;24805;55.852;37.644;2022-10-31T17:48:45;98789.91;;;4.51;58.06
39051;BME280;24805;55.852;37.644;2022-10-31T17:53:47;98798.94;;;4.48;58.23
39051;BME280;24805;55.852;37.644;2022-10-31T17:58:49;98795.53;;;4.56;57.86
39051;BME280;24805;55.852;37.644;2022-10-31T18:03:53;98807.31;;;4.52;57.63
39051;BME280;24805;55.852;37.644;2022-10-31T18:08:55;98810.47;;;4.56;57.71
39051;BME280;24805;55.852;37.644;2022-10-31T18:13:58;98831.66;;;4.62;57.41
39051;BME280;24805;55.852;37.644;2022-10-31T18:19:00;98837.28;;;4.67;57.52
39051;BME280;24805;55.852;37.644;2022-10-31T18:24:03;98831.19;;;4.67;57.22
39051;BME280;24805;55.852;37.644;2022-10-31T18:29:14;98835.94;;;4.63;57.31
39051;BME280;24805;55.852;37.644;2022-10-31T18:34:17;98855.00;;;4.65;57.18
39051;BME280;24805;55.852;37.644;2022-10-31T18:39:19;98854.19;;;4.65;57.09
39051;BME280;24805;55.852;37.644;2022-10-31T18:44:20;98862.72;;;4.67;57.24
39051;BME280;24805;55.852;37.644;2022-10-31T18:49:23;98863.72;;;4.66;57.58
39051;BME280;24805;55.852;37.644;2022-10-31T18:54:26;98871.44;;;4.67;57.38
39051;BME280;24805;55.852;37.644;2022-10-31T18:59:28;98865.63;;;4.56;57.29
39051;BME280;24805;55.852;37.644;2022-10-31T19:04:30;98889.31;;;4.64;57.30
39051;BME280;24805;55.852;37.644;2022-10-31T19:09:32;98879.44;;;4.58;57.52
39051;BME280;24805;55.852;37.644;2022-10-31T19:14:34;98875.63;;;4.52;57.40
39051;BME280;24805;55.852;37.644;2022-10-31T19:19:38;98888.22;;;4.48;57.24
39051;BME280;24805;55.852;37.644;2022-10-31T19:24:39;98895.81;;;4.52;57.45
39051;BME280;24805;55.852;37.644;2022-10-31T19:29:41;98888.91;;;4.50;57.32
39051;BME280;24805;55.852;37.644;2022-10-31T19:34:44;98905.44;;;4.43;57.38
39051;BME280;24805;55.852;37.644;2022-10-31T19:39:46;98903.78;;;4.42;57.30
39051;BME280;24805;55.852;37.644;2022-10-31T19:44:48;98916.41;;;4.38;57.19
39051;BME280;24805;55.852;37.644;2022-10-31T19:49:50;98929.53;;;4.38;57.23
39051;BME280;24805;55.852;37.644;2022-10-31T19:54:52;98917.53;;;4.36;57.32
39051;BME280;24805;55.852;37.644;2022-10-31T19:59:54;98934.41;;;4.33;57.34
39051;BME280;24805;55.852;37.644;2022-10-31T20:04:56;98930.44;;;4.29;57.51
39051;BME280;24805;55.852;37.644;2022-10-31T20:10:00;98933.22;;;4.28;57.70
39051;BME280;24805;55.852;37.644;2022-10-31T20:15:03;98941.53;;;4.23;57.62
39051;BME280;24805;55.852;37.644;2022-10-31T20:20:05;98939.41;;;4.19;57.76
39051;BME280;24805;55.852;37.644;2022-10-31T20:25:09;98943.00;;;4.18;57.24
39051;BME280;24805;55.852;37.644;2022-10-31T20:30:12;98958.66;;;4.09;57.23
39051;BME280;24805;55.852;37.644;2022-10-31T20:35:14;98964.66;;;4.02;57.88
39051;BME280;24805;55.852;37.644;2022-10-31T20:40:16;98969.41;;;3.98;57.99
39051;BME280;24805;55.852;37.644;2022-10-31T20:45:19;98976.59;;;3.96;58.84
39051;BME280;24805;55.852;37.644;2022-10-31T20:50:20;98978.69;;;3.93;59.50
39051;BME280;24805;55.852;37.644;2022-10-31T20:55:23;98985.03;;;3.90;58.52
39051;BME280;24805;55.852;37.644;2022-10-31T21:00:25;98994.03;;;3.88;58.61
39051;BME280;24805;55.852;37.644;2022-10-31T21:05:27;98984.25;;;3.80;58.75
39051;BME280;24805;55.852;37.644;2022-10-31T21:10:29;98987.09;;;3.69;58.61
39051;BME280;24805;55.852;37.644;2022-10-31T21:15:30;99004.94;;;3.65;58.46
39051;BME280;24805;55.852;37.644;2022-10-31T21:20:32;98999.00;;;3.63;58.56
39051;BME280;24805;55.852;37.644;2022-10-31T21:25:36;99009.22;;;3.66;58.10
39051;BME280;24805;55.852;37.644;2022-10-31T21:30:42;99003.97;;;3.66;58.17
39051;BME280;24805;55.852;37.644;2022-10-31T21:35:48;99028.94;;;3.70;58.06
39051;BME280;24805;55.852;37.644;2022-10-31T21:41:01;99017.63;;;3.70;58.37
39051;BME280;24805;55.852;37.644;2022-10-31T21:46:04;99017.06;;;3.66;58.37
39051;BME280;24805;55.852;37.644;2022-10-31T21:51:08;99031.44;;;3.62;59.09
39051;BME280;24805;55.852;37.644;2022-10-31T21:56:10;99041.44;;;3.59;58.61
39051;BME280;24805;55.852;37.644;2022-10-31T22:01:12;99051.75;;;3.60;58.50
39051;BME280;24805;55.852;37.644;2022-10-31T22:06:14;99036.19;;;3.59;58.41
39051;BME280;24805;55.852;37.644;2022-10-31T22:11:17;99054.97;;;3.54;58.85
39051;BME280;24805;55.852;37.644;2022-10-31T22:16:21;99068.63;;;3.58;58.05
39051;BME280;24805;55.852;37.644;2022-10-31T22:21:24;99056.34;;;3.58;58.79
39051;BME280;24805;55.852;37.644;2022-10-31T22:26:27;99067.34;;;3.62;58.49
39051;BME280;24805;55.852;37.644;2022-10-31T22:31:29;99073.13;;;3.65;58.56
39051;BME280;24805;55.852;37.644;2022-10-31T22:36:31;99066.38;;;3.63;58.66
39051;BME280;24805;55.852;37.644;2022-10-31T22:41:34;99071.63;;;3.63;58.86
39051;BME280;24805;55.852;37.644;2022-10-31T22:46:37;99078.16;;;3.59;58.69
39051;BME280;24805;55.852;37.644;2022-10-31T22:51:39;99075.81;;;3.56;58.34
39051;BME280;24805;55.852;37.644;2022-10-31T22:56:42;99087.41;;;3.53;58.76
39051;BME280;24805;55.852;37.644;2022-10-31T23:01:44;99100.81;;;3.50;58.79
39051;BME280;24805;55.852;37.644;2022-10-31T23:06:47;99099.03;;;3.41;59.56
39051;BME280;24805;55.852;37.644;2022-10-31T23:11:49;99099.84;;;3.41;59.22
39051;BME280;24805;55.852;37.644;2022-10-31T23:16:52;99101.50;;;3.42;59.27
39051;BME280;24805;55.852;37.644;2022-10-31T23:21:56;99107.59;;;3.43;59.75
39051;BME280;24805;55.852;37.644;2022-10-31T23:27:03;99100.00;;;3.40;59.33
39051;BME280;24805;55.852;37.644;2022-10-31T23:32:13;99104.59;;;3.38;59.40
39051;BME280;24805;55.852;37.644;2022-10-31T23:37:15;99113.00;;;3.32;59.18
39051;BME280;24805;55.852;37.644;2022-10-31T23:42:18;99104.03;;;3.25;58.92
39051;BME280;24805;55.852;37.644;2022-10-31T23:47:20;99121.84;;;3.21;59.12
39051;BME280;24805;55.852;37.644;2022-10-31T23:52:22;99127.63;;;3.25;58.56
39051;BME280;24805;55.852;37.644;2022-10-31T23:57:24;99132.19;;;3.23;59.34
